Date,TemperatureHighF,TemperatureAvgF,TemperatureLowF,DewpointHighF,DewpointAvgF,DewpointLowF,HumidityHigh,HumidityAvg,HumidityLow,PressureMaxIn,PressureMinIn,WindSpeedMaxMPH,WindSpeedAvgMPH,GustSpeedMaxMPH,PrecipitationSumIn
2014-1-1,61.9,47.6,36.3,51.3,43.2,33.5,95,85,66,30.35,30.06,8,0,8,0.10
2014-1-2,54.7,44.0,30.6,53.6,38.0,22.6,97,80,59,30.43,29.99,19,2,19,0.37
2014-1-3,41.3,31.0,24.8,23.2,19.2,16.1,77,63,39,30.55,30.32,16,1,16,0.00
2014-1-4,58.0,41.0,22.2,43.4,32.3,17.7,87,72,55,30.32,30.07,15,1,15,0.00
2014-1-5,64.1,47.5,28.5,57.2,43.8,22.7,94,87,74,30.28,29.81,21,2,21,0.16
2014-1-6,28.4,22.3,17.2,22.6,9.6,2.9,79,59,41,30.66,30.28,21,2,21,0.00
2014-1-7,30.7,22.2,13.4,13.1,8.4,2.5,68,55,41,30.73,30.53,14,0,14,0.00
2014-1-8,47.5,32.5,18.2,16.3,13.3,10.5,81,49,25,30.58,30.38,8,0,8,0.00
2014-1-9,63.1,48.7,38.1,42.7,26.6,13.5,80,44,25,30.40,30.25,9,0,9,0.00
2014-1-10,65.0,52.3,40.7,63.1,49.4,38.3,96,90,80,30.25,29.78,13,1,13,0.01
2014-1-11,66.0,57.9,42.9,64.4,44.1,31.8,96,64,30,30.10,29.76,16,2,16,0.31
2014-1-12,67.5,50.5,32.1,40.2,35.2,29.7,94,60,31,30.23,30.04,13,1,13,0.00
2014-1-13,59.6,54.2,48.7,57.7,50.9,38.8,96,89,59,30.06,29.84,9,0,11,0.36
2014-1-14,64.8,50.3,36.7,47.6,37.4,32.0,95,65,31,30.13,30.01,10,0,10,0.00
2014-1-15,49.2,42.5,28.6,39.9,24.6,16.8,77,51,30,30.28,30.12,15,1,15,0.00
2014-1-16,61.0,44.2,27.2,38.0,27.7,19.7,75,55,31,30.22,30.01,14,0,14,0.00
2014-1-17,50.6,43.9,29.5,37.8,20.8,9.1,70,42,21,30.27,30.06,17,1,17,0.00
2014-1-18,59.7,43.2,25.1,38.6,23.0,13.9,79,49,24,30.30,30.05,12,1,12,0.00
2014-1-19,58.4,47.6,36.1,42.4,33.3,27.9,83,60,33,30.28,30.07,7,0,7,0.00
2014-1-20,69.0,50.3,32.9,42.6,33.1,27.6,84,56,24,30.16,29.95,9,0,9,0.00
2014-1-21,53.9,41.6,27.6,46.9,27.2,17.4,82,57,44,30.28,29.94,23,2,23,0.00
2014-1-22,48.0,33.7,21.8,25.3,18.9,13.9,81,57,30,30.29,30.18,6,0,6,0.00
2014-1-23,45.7,34.8,28.0,24.8,19.6,7.3,72,54,38,30.72,30.26,15,1,15,0.00
2014-1-24,35.7,28.1,23.8,11.6,7.2,4.2,57,41,28,30.73,30.33,13,0,13,0.00
2014-1-25,58.2,37.6,22.8,28.5,21.1,11.6,76,54,26,30.33,30.04,10,0,10,0.00
2014-1-26,65.9,49.6,35.7,42.7,35.5,28.1,81,60,36,30.07,29.86,12,1,12,0.00
2014-1-27,54.0,45.7,29.4,46.9,31.1,6.8,94,59,36,30.26,29.88,21,2,21,0.00
2014-1-28,29.4,24.5,21.4,17.9,12.2,5.4,83,60,38,30.47,30.25,16,1,16,0.00
2014-1-29,33.2,24.0,18.0,13.4,7.8,3.1,78,51,34,30.54,30.39,11,0,11,0.03
2014-1-30,49.1,31.8,15.0,19.5,12.8,9.0,84,51,21,30.40,30.13,8,0,8,0.00
2014-1-31,63.6,46.4,28.3,45.9,36.2,19.2,84,68,50,30.21,30.07,12,0,12,0.00
2014-2-1,69.9,57.1,43.9,59.1,50.4,40.9,93,79,61,30.09,30.01,10,1,10,0.00
2014-2-2,69.2,56.6,37.9,65.4,54.6,36.5,95,93,87,30.09,29.87,15,1,15,0.93
2014-2-3,41.0,37.7,34.0,38.5,35.9,32.7,95,93,90,30.27,30.07,15,1,15,0.47
2014-2-4,65.7,45.6,39.0,63.3,43.9,37.2,98,94,81,30.16,29.80,19,1,19,0.33
2014-2-5,41.0,36.2,29.8,39.6,32.4,24.4,100,86,76,30.45,30.03,17,2,17,0.00
2014-2-6,36.4,30.7,28.3,28.8,24.2,-99.9,89,79,71,30.54,30.40,10,-9,11,0.00
2014-2-7,47.6,34.9,26.2,34.9,28.3,-99.9,90,78,59,30.47,30.24,10,-3,10,0.00
2014-2-8,55.5,43.0,33.5,44.7,38.3,31.4,95,84,64,30.33,30.16,9,0,9,0.08
2014-2-9,63.4,49.7,40.4,51.5,44.4,38.5,94,83,61,30.23,30.09,6,0,8,0.00
2014-2-10,43.7,40.2,34.8,41.4,37.7,33.5,100,91,84,30.24,30.12,13,1,13,0.38
2014-2-11,35.0,33.3,32.3,33.7,31.8,30.5,95,94,93,30.29,30.13,13,1,13,0.66
2014-2-12,36.7,33.9,31.2,35.7,32.8,30.2,96,96,95,30.15,29.98,13,1,13,0.19
2014-2-13,53.4,38.9,27.9,39.4,32.5,26.7,97,80,48,30.12,29.99,8,0,8,0.00
2014-2-14,62.9,48.4,34.8,53.9,42.7,31.3,94,81,65,30.03,29.79,19,1,19,0.08
2014-2-15,54.8,40.6,32.7,39.0,32.0,27.1,87,73,37,30.28,30.03,15,1,15,0.00
2014-2-16,68.3,52.2,37.1,49.9,41.5,31.8,86,69,44,30.21,30.11,8,0,8,0.00
2014-2-17,71.4,62.2,54.0,61.0,56.8,49.3,94,83,69,30.14,30.04,13,1,13,0.00
2014-2-18,72.9,62.2,51.0,64.4,58.0,49.6,99,87,66,30.16,30.02,11,0,11,0.00
2014-2-19,77.8,67.1,59.9,63.0,59.9,57.5,96,79,52,30.10,29.93,13,1,13,0.00
2014-2-20,81.5,69.7,52.6,65.8,61.8,46.8,95,78,50,30.01,29.78,18,2,18,2.01
2014-2-21,62.2,50.2,38.1,46.8,35.4,24.9,93,61,26,30.17,30.01,14,1,14,0.00
2014-2-22,67.8,51.5,37.3,39.5,37.1,33.9,93,62,30,30.19,30.03,11,0,11,0.00
2014-2-23,67.5,57.7,46.3,58.4,50.1,37.8,91,76,58,30.10,29.99,9,0,9,0.00
2014-2-24,66.0,55.6,47.3,50.0,45.7,40.5,83,70,52,30.22,30.10,10,1,10,0.00
2014-2-25,57.3,53.8,51.2,49.7,46.6,40.7,92,77,64,30.17,30.00,12,0,12,0.05
2014-2-26,52.0,38.6,31.2,49.7,31.7,21.2,92,77,62,30.16,29.99,19,2,19,0.17
2014-2-27,51.2,36.2,23.6,27.6,22.5,18.6,92,61,31,30.20,30.06,8,0,8,0.00
2014-2-28,60.4,47.9,29.8,45.2,30.7,24.5,82,55,28,30.12,29.96,13,1,13,0.00
2014-3-1,78.3,63.5,51.1,61.6,54.5,44.2,87,73,54,30.18,30.07,9,1,9,0.00
2014-3-2,79.8,68.2,45.6,63.8,60.8,41.0,92,78,57,30.18,29.88,20,2,20,0.06
2014-3-3,44.4,30.3,25.3,41.0,27.0,22.0,94,88,81,30.34,29.95,16,2,16,0.14
2014-3-4,35.7,31.0,26.6,30.0,26.7,23.1,88,84,78,30.30,30.16,8,0,8,0.00
2014-3-5,61.0,46.4,32.6,47.5,39.8,29.4,93,79,59,30.18,30.05,7,0,7,0.00
2014-3-6,48.0,43.5,41.3,44.6,41.8,39.7,96,94,87,30.10,30.02,9,1,11,0.59
2014-3-7,63.2,49.2,38.2,48.4,43.3,36.6,96,82,53,30.15,30.02,7,0,7,0.00
2014-3-8,70.0,55.6,42.5,52.9,46.9,40.6,96,75,44,30.22,30.07,7,0,9,0.00
2014-3-9,70.8,60.3,51.9,53.3,50.5,47.6,88,72,47,30.27,30.16,8,0,8,0.00
2014-3-10,74.2,57.9,44.7,56.8,50.5,43.1,96,79,51,30.22,29.97,9,0,9,0.00
2014-3-11,70.0,59.7,50.0,63.2,56.7,48.3,96,90,72,29.97,29.67,11,0,11,0.06
2014-3-12,62.4,56.5,45.5,61.2,47.5,32.1,96,73,50,30.21,29.70,16,2,18,0.00
2014-3-13,64.1,49.4,33.4,36.9,33.4,29.2,92,58,30,30.35,30.21,9,0,9,0.00
2014-3-14,66.3,53.2,38.6,46.0,40.1,34.2,88,64,38,30.28,30.12,7,1,13,0.00
2014-3-15,70.0,61.1,53.9,57.5,53.7,44.3,94,78,58,30.13,29.86,8,0,9,0.17
2014-3-16,69.8,60.8,43.3,62.6,55.6,39.9,96,84,62,29.86,29.63,18,1,18,0.78
2014-3-17,43.2,39.1,37.3,40.2,35.5,34.0,92,87,80,29.94,29.82,14,1,14,0.00
2014-3-18,68.0,50.9,38.2,49.5,42.0,35.5,92,74,47,30.00,29.86,12,1,12,0.00
2014-3-19,76.5,60.4,47.3,58.4,50.6,44.5,92,72,40,30.15,29.95,10,1,10,0.00
2014-3-20,70.3,56.7,46.5,45.1,40.7,31.5,82,58,27,30.23,30.10,10,0,10,0.00
2014-3-21,79.0,60.4,40.0,50.4,43.0,37.0,91,58,30,30.13,29.96,12,1,12,0.00
2014-3-22,75.8,65.9,56.1,62.6,56.9,49.9,89,73,60,30.09,30.00,5,0,5,0.00
2014-3-23,64.1,54.2,48.1,60.5,48.2,39.8,93,80,67,30.25,30.00,16,2,16,0.07
2014-3-24,65.3,52.1,39.8,41.6,36.7,33.1,78,57,33,30.25,30.01,12,1,12,0.00
2014-3-25,57.4,48.8,38.4,34.3,30.4,26.1,73,50,32,30.32,30.11,18,2,18,0.00
2014-3-26,64.1,47.7,31.4,32.7,29.5,25.4,87,54,27,30.42,30.21,15,1,15,0.00
2014-3-27,74.7,59.5,47.8,59.8,48.9,32.2,95,69,50,30.22,29.95,13,2,21,1.07
2014-3-28,75.8,65.4,60.6,68.2,62.1,59.2,96,89,74,30.00,29.85,16,2,16,0.91
2014-3-29,64.9,58.9,51.5,59.9,51.6,44.3,96,78,52,30.25,29.76,18,2,18,0.69
2014-3-30,71.1,54.8,42.1,45.3,41.5,36.5,92,65,29,30.33,30.16,6,0,7,0.00
2014-3-31,81.9,61.5,41.1,48.0,42.1,37.4,93,56,22,30.18,30.02,15,1,15,0.00
2014-4-1,82.0,68.0,56.9,63.5,57.9,48.2,91,72,48,30.16,30.04,13,1,13,0.00
2014-4-2,82.0,70.6,61.8,69.0,63.6,59.1,93,80,63,30.11,29.97,17,1,17,0.00
2014-4-3,85.1,74.4,68.1,67.3,65.1,63.1,89,74,51,30.02,29.88,17,2,17,0.00
2014-4-4,71.4,65.0,57.1,67.0,59.2,47.7,96,82,61,30.10,29.83,15,1,15,1.10
2014-4-5,65.4,56.6,47.6,48.1,44.4,41.1,78,64,46,30.17,30.03,11,1,11,0.00
2014-4-6,59.4,53.0,49.2,58.5,51.0,45.0,97,93,66,30.08,29.63,14,1,14,4.09
2014-4-7,64.3,56.5,47.4,63.4,52.6,45.1,97,87,68,29.95,29.61,12,1,12,0.12
2014-4-8,60.7,51.7,44.2,53.8,48.2,42.6,96,88,76,30.09,29.86,13,1,13,0.04
2014-4-9,70.5,56.5,44.0,46.4,43.5,36.7,93,65,31,30.27,30.09,9,0,9,0.00
2014-4-10,78.8,62.2,44.4,51.3,46.3,41.2,90,60,33,30.25,30.10,14,1,14,0.00
2014-4-11,79.0,65.5,52.1,59.3,54.6,49.5,93,70,46,30.24,30.08,14,1,14,0.00
2014-4-12,82.3,70.3,60.8,62.6,60.3,55.7,94,73,47,30.18,30.00,12,1,12,0.00
2014-4-13,83.8,71.5,61.8,67.7,61.1,54.1,91,71,48,30.05,29.85,17,2,17,0.02
2014-4-14,71.4,61.6,47.9,66.2,59.5,45.4,97,93,80,29.99,29.73,21,2,21,3.22
2014-4-15,54.9,47.2,41.9,45.5,35.7,30.0,93,66,41,30.27,29.99,20,2,20,0.00
2014-4-16,67.7,50.5,36.7,44.2,36.1,30.8,81,60,30,30.31,30.14,10,0,12,0.00
2014-4-17,69.0,56.2,41.9,54.5,48.3,39.2,92,76,58,30.29,30.19,9,0,9,0.00
2014-4-18,74.2,62.8,56.3,61.3,56.1,53.1,91,79,57,30.22,30.13,10,0,10,0.00
2014-4-19,79.2,63.7,50.0,57.2,53.6,48.3,96,73,40,30.23,30.12,12,0,12,0.00
2014-4-20,81.5,65.8,51.8,60.4,54.4,49.9,94,70,37,30.25,30.11,7,0,7,0.00
2014-4-21,80.8,68.8,58.8,63.9,59.0,53.3,92,72,50,30.15,29.98,7,0,7,0.00
2014-4-22,78.0,67.7,62.3,66.2,62.4,59.5,95,84,63,29.99,29.90,7,0,7,0.19
2014-4-23,80.8,67.5,55.7,60.5,54.8,49.1,94,68,35,30.04,29.91,7,0,7,0.00
2014-4-24,83.8,71.1,58.1,67.1,59.5,50.3,87,68,46,29.98,29.78,14,0,14,0.00
2014-4-25,79.8,68.7,59.7,67.1,57.4,52.4,93,70,39,30.03,29.88,6,0,10,0.12
2014-4-26,88.8,72.0,53.8,69.3,61.0,51.8,95,71,44,30.01,29.88,10,0,10,0.00
2014-4-27,86.5,76.0,65.4,72.4,69.0,63.6,96,80,55,29.91,29.67,19,2,19,0.25
2014-4-28,85.8,75.2,67.0,73.5,69.5,64.8,96,83,64,29.80,29.51,19,2,19,1.79
2014-4-29,83.3,69.0,58.2,70.9,62.3,54.4,97,80,61,29.84,29.67,11,0,11,0.00
2014-4-30,66.8,60.8,53.3,56.0,49.1,45.2,83,66,52,30.12,29.82,9,1,9,0.00
2014-5-1,71.6,58.3,45.4,49.1,44.1,35.6,93,63,34,30.15,30.02,4,0,7,0.00
2014-5-2,75.2,62.3,50.9,51.0,46.9,39.5,91,61,29,30.07,29.98,8,0,8,0.00
2014-5-3,82.8,66.6,50.7,53.2,47.7,40.4,84,55,27,30.11,30.02,8,0,8,0.00
2014-5-4,89.0,71.7,56.2,62.6,55.9,50.5,88,61,32,30.15,30.03,6,0,6,0.00
2014-5-5,87.8,73.7,60.1,59.1,54.8,46.0,83,54,33,30.08,29.94,9,0,9,0.00
2014-5-6,84.3,71.2,58.2,64.1,59.8,55.3,91,69,47,30.04,29.92,12,0,12,0.00
2014-5-7,86.8,73.7,62.1,65.7,62.7,58.8,93,70,46,30.09,29.96,13,0,13,0.00
2014-5-8,85.8,75.5,68.2,69.0,65.9,61.1,94,74,45,30.12,30.01,15,1,15,0.00
2014-5-9,73.9,66.7,64.1,69.9,64.5,62.0,96,93,82,30.14,29.93,15,0,15,1.68
2014-5-10,84.8,71.3,63.3,73.8,66.8,61.3,95,87,66,30.06,29.96,9,0,9,0.23
2014-5-11,87.2,75.4,70.4,76.4,71.7,68.9,97,89,62,30.07,29.97,19,1,19,0.25
2014-5-12,87.8,78.0,71.2,74.1,70.9,68.4,96,80,56,30.10,29.99,14,1,14,0.00
2014-5-13,86.0,76.9,70.6,70.6,67.9,62.6,94,76,47,30.10,30.00,12,0,12,0.00
2014-5-14,72.6,64.8,52.2,71.1,62.2,48.7,96,91,81,30.15,29.97,12,1,12,0.31
2014-5-15,70.0,57.9,48.2,52.5,47.7,44.6,91,71,43,30.26,30.14,13,1,13,0.00
2014-5-16,76.0,63.6,53.2,57.5,53.1,49.3,92,71,44,30.22,30.09,8,0,8,0.00
2014-5-17,84.5,71.3,59.5,61.6,57.5,52.7,87,65,37,30.17,30.06,11,0,11,0.00
2014-5-18,84.0,71.9,62.8,65.6,62.1,59.5,91,73,48,30.21,30.12,8,0,8,0.00
2014-5-19,86.3,73.1,60.1,65.6,60.6,57.0,94,68,40,30.20,30.11,9,0,9,0.00
2014-5-20,88.8,75.5,64.1,64.3,61.6,58.3,94,65,38,30.21,30.11,9,0,9,0.00
2014-5-21,89.0,77.0,67.5,67.3,65.1,61.5,94,69,41,30.22,30.11,8,0,8,0.00
2014-5-22,88.5,76.3,65.8,70.5,66.1,63.1,93,72,49,30.23,30.09,6,0,6,0.00
2014-5-23,90.1,77.2,65.8,70.1,66.6,63.4,93,72,47,30.17,30.05,5,0,5,0.00
2014-5-24,85.8,75.7,69.8,71.4,67.7,65.6,91,77,56,30.15,30.06,8,0,8,0.00
2014-5-25,90.8,77.5,66.1,72.3,66.4,63.1,94,71,42,30.14,30.03,11,0,11,0.00
2014-5-26,88.3,77.4,67.0,71.6,67.5,63.6,93,73,51,30.17,30.07,9,0,9,0.00
2014-5-27,86.3,75.5,68.3,75.6,69.4,66.5,95,82,60,30.10,29.97,11,0,11,0.13
2014-5-28,74.3,69.9,66.8,70.1,67.7,65.2,97,93,83,30.01,29.89,14,0,14,2.55
2014-5-29,80.3,71.2,68.5,73.1,68.8,66.5,96,92,77,29.94,29.87,13,1,13,0.51
2014-5-30,80.8,73.8,70.1,74.0,70.9,68.8,96,91,74,30.01,29.90,11,0,11,0.04
2014-5-31,83.2,74.5,69.7,74.2,70.5,67.9,95,88,70,30.05,29.97,13,0,13,0.01
2014-6-1,86.3,74.1,69.9,74.7,70.4,68.3,96,89,63,30.11,30.01,12,0,12,0.29
2014-6-2,85.7,75.7,69.1,75.6,71.3,67.9,96,87,70,30.14,30.04,8,0,8,0.00
2014-6-3,88.1,77.4,71.3,75.6,71.9,69.5,95,84,63,30.11,29.98,6,0,6,0.00
2014-6-4,89.2,79.1,71.7,74.5,72.1,69.9,95,80,60,30.03,29.88,8,0,8,0.00
2014-6-5,89.4,80.6,73.0,75.5,73.2,70.8,94,79,60,29.96,29.87,7,0,7,0.00
2014-6-6,92.9,82.1,74.1,77.8,74.6,71.9,95,79,57,29.99,29.88,8,0,8,0.00
2014-6-7,93.8,82.5,72.8,77.9,74.1,70.8,94,77,51,30.02,29.89,4,0,4,0.00
2014-6-8,91.5,82.5,75.6,77.4,74.2,71.1,91,77,57,30.01,29.86,5,0,5,0.00
2014-6-9,90.6,77.0,69.6,76.9,71.4,67.6,97,84,59,29.96,29.80,13,0,13,1.03
2014-6-10,78.7,70.9,66.7,72.2,68.5,65.1,96,92,80,29.91,29.77,12,0,12,1.38
2014-6-11,82.4,73.8,66.8,68.9,66.4,64.0,96,79,58,29.89,29.82,10,0,11,0.01
2014-6-12,88.5,77.2,65.7,71.7,68.1,63.6,94,76,51,29.97,29.88,5,0,5,0.00
2014-6-13,86.2,76.9,68.6,75.0,69.9,66.3,96,80,55,30.00,29.90,10,0,10,0.40
2014-6-14,89.2,78.2,68.3,72.6,68.2,63.3,94,74,44,30.06,29.95,6,0,6,0.00
2014-6-15,91.6,80.3,70.5,73.9,70.8,66.8,93,74,52,30.09,29.97,7,0,8,0.00
2014-6-16,92.0,80.6,72.0,76.3,72.6,69.7,94,78,55,30.19,30.08,11,0,11,0.00
2014-6-17,91.8,81.8,72.7,75.9,73.0,70.6,94,76,55,30.18,30.06,9,0,9,0.00
2014-6-18,93.3,82.3,72.7,75.7,72.3,69.9,93,74,51,30.14,30.05,4,0,7,0.00
2014-6-19,90.9,81.4,73.0,79.0,73.6,69.8,93,78,58,30.17,30.08,8,0,8,0.00
2014-6-20,92.8,80.9,73.1,77.2,73.3,69.9,95,79,55,30.13,30.02,10,0,10,0.79
2014-6-21,89.5,78.1,72.2,78.5,73.4,70.8,96,86,63,30.07,29.95,5,0,5,0.01
2014-6-22,87.1,77.0,71.7,78.7,73.2,69.3,96,89,71,30.01,29.93,7,0,7,0.52
2014-6-23,88.7,76.5,72.2,78.2,72.4,69.7,95,88,65,30.03,29.93,14,0,14,0.43
2014-6-24,83.6,76.5,72.1,75.6,72.3,69.2,95,87,70,30.11,30.01,9,0,9,0.27
2014-6-25,86.7,74.3,69.5,76.4,71.0,67.7,96,90,67,30.14,30.04,11,0,11,0.79
2014-6-26,85.9,74.9,69.9,77.0,71.1,67.5,97,89,63,30.14,30.00,13,0,13,0.34
2014-6-27,83.5,74.5,69.9,74.8,71.1,68.7,96,90,67,30.14,30.03,10,0,10,0.05
2014-6-28,90.5,77.9,71.0,79.5,72.9,69.2,95,85,63,30.15,30.06,13,0,13,0.02
2014-6-29,91.2,82.4,75.4,77.0,75.5,72.8,95,81,60,30.18,30.06,9,0,9,0.00
2014-6-30,92.3,82.9,75.9,78.1,75.4,73.5,95,79,55,30.11,29.99,5,0,5,0.00
2014-7-1,94.3,83.3,75.2,75.9,74.2,70.7,94,76,50,30.06,29.94,5,0,5,0.00
2014-7-2,94.8,81.9,75.3,78.9,74.0,68.7,94,78,52,30.11,29.99,14,0,14,0.00
2014-7-3,89.3,79.8,73.0,75.2,70.8,65.3,94,75,55,30.17,30.02,11,0,11,0.00
2014-7-4,86.2,76.1,66.8,67.7,65.2,61.8,87,70,50,30.25,30.17,8,0,8,0.00
2014-7-5,88.5,75.9,64.0,66.3,63.8,59.6,94,69,40,30.23,30.11,7,0,7,0.00
2014-7-6,91.4,78.1,65.2,71.6,66.8,63.1,94,71,44,30.14,30.01,7,0,7,0.00
2014-7-7,91.1,79.7,69.1,79.6,71.3,66.4,93,77,57,30.08,29.99,6,0,6,0.03
2014-7-8,94.4,81.9,73.4,76.0,72.8,70.1,91,75,52,30.11,30.00,7,0,7,0.00
2014-7-9,84.8,77.4,73.2,76.4,72.4,69.5,93,85,72,30.12,30.02,6,0,6,0.00
2014-7-10,89.3,77.7,71.1,77.6,73.4,69.3,96,88,65,30.14,30.03,11,0,11,1.39
2014-7-11,87.6,77.6,71.9,79.9,74.5,70.5,96,90,76,30.18,30.10,3,0,6,0.06
2014-7-12,92.1,81.2,73.0,78.6,75.1,71.5,96,83,59,30.19,30.08,6,0,6,0.00
2014-7-13,91.8,82.5,75.6,80.5,76.6,73.7,95,83,62,30.13,30.01,7,0,7,0.07
2014-7-14,93.2,82.9,74.6,78.2,75.4,72.4,93,79,58,30.07,29.92,6,0,6,0.00
2014-7-15,83.2,76.8,72.6,78.2,72.3,65.1,95,86,74,30.00,29.90,11,0,11,0.42
2014-7-16,82.8,74.1,65.8,66.3,62.8,60.1,87,69,49,30.05,29.98,7,0,7,0.00
2014-7-17,83.8,74.4,66.1,69.2,64.3,60.8,86,72,54,30.08,30.00,8,0,8,0.00
2014-7-18,79.3,71.6,66.6,74.0,68.9,64.1,96,91,78,30.03,29.92,13,0,13,0.64
2014-7-19,77.2,72.5,68.3,72.1,69.5,67.1,96,90,83,30.06,29.97,5,0,5,0.01
2014-7-20,87.0,77.6,72.3,75.9,71.2,69.5,93,82,61,30.08,29.99,7,0,7,0.00
2014-7-21,89.3,79.1,70.2,75.0,71.5,68.3,96,79,55,30.09,30.01,9,0,9,0.00
2014-7-22,88.0,79.3,72.0,78.1,73.4,69.2,93,83,71,30.08,30.02,8,0,8,0.01
2014-7-23,84.0,79.3,72.3,75.7,73.4,70.5,95,83,74,30.09,30.05,4,0,4,0.00
2014-7-24,83.7,82.8,82.5,75.3,74.5,74.2,78,76,75,30.08,30.08,0,0,3,0.00
2014-7-25,83.7,82.8,82.5,75.3,74.5,74.2,78,76,75,30.08,30.08,0,0,3,0.00
2014-7-26,83.7,82.8,82.5,75.3,74.5,74.2,78,76,75,30.08,30.08,0,0,3,0.00
2014-7-27,83.7,82.8,82.5,75.3,74.5,74.2,78,76,75,30.08,30.08,0,0,3,0.00
2014-7-28,83.7,82.8,82.5,75.3,74.5,74.2,78,76,75,30.08,30.08,0,0,3,0.00
2014-7-29,83.7,82.8,82.5,75.3,74.5,74.2,78,76,75,30.08,30.08,0,0,3,0.00
2014-7-30,83.7,82.8,82.5,75.3,74.5,74.2,78,76,75,30.08,30.08,0,0,3,0.00
2014-7-31,83.7,82.8,82.5,75.3,74.5,74.2,78,76,75,30.08,30.08,0,0,3,0.00
2014-8-1,83.7,82.8,82.5,75.3,74.5,74.2,78,76,75,30.08,30.08,0,0,3,0.00
2014-8-2,83.7,82.8,82.5,75.3,74.5,74.2,78,76,75,30.08,30.08,0,0,3,0.00
2014-8-3,83.7,82.8,82.5,75.3,74.5,74.2,78,76,75,30.08,30.08,0,0,3,0.00
2014-8-4,83.7,82.8,82.5,75.3,74.5,74.2,78,76,75,30.08,30.08,0,0,3,0.00
2014-8-5,83.7,82.8,82.5,75.3,74.5,74.2,78,76,75,30.08,30.08,0,0,3,0.00
2014-8-6,83.7,82.8,82.5,75.3,74.5,74.2,78,76,75,30.08,30.08,0,0,3,0.00
2014-8-7,91.2,83.5,77.9,77.9,74.8,73.4,87,75,60,30.08,29.92,3,0,4,0.00
2014-8-8,94.6,83.9,74.6,77.8,74.3,72.1,94,75,50,30.03,29.92,7,0,7,0.00
2014-8-9,91.3,79.4,73.9,79.6,74.9,70.8,95,87,67,30.06,29.97,19,0,19,0.07
2014-8-10,95.0,79.0,71.3,80.2,73.7,69.4,96,85,55,30.08,29.95,11,0,11,1.23
2014-8-11,82.3,74.5,72.2,77.9,72.9,71.0,97,95,81,30.07,29.95,12,0,12,0.49
2014-8-12,89.7,78.3,71.7,78.0,72.4,67.9,96,83,60,30.01,29.92,10,0,10,0.00
2014-8-13,86.5,77.0,68.5,68.6,65.5,62.3,89,69,46,30.09,30.00,10,0,10,0.00
2014-8-14,86.5,74.8,63.2,67.4,64.2,61.0,94,71,47,30.10,30.00,7,0,7,0.00
2014-8-15,88.5,76.1,65.2,70.8,66.6,63.0,94,74,50,30.08,29.98,8,0,8,0.00
2014-8-16,91.1,78.9,66.5,75.8,70.6,64.4,95,77,54,30.06,29.96,7,0,7,0.00
2014-8-17,94.0,82.2,75.4,77.6,74.4,71.2,94,79,56,30.05,29.95,7,0,7,0.00
2014-8-18,91.3,81.3,74.4,77.5,74.4,70.4,94,80,59,30.02,29.90,9,0,9,0.00
2014-8-19,93.0,83.4,76.2,78.7,75.5,73.3,93,78,60,30.00,29.89,7,0,7,0.00
2014-8-20,94.7,83.3,74.5,76.8,73.7,71.2,93,75,49,30.10,29.97,6,0,6,0.00
2014-8-21,93.4,81.3,74.1,77.6,74.0,70.7,95,80,56,30.17,30.06,6,0,6,0.72
2014-8-22,94.5,82.0,72.5,77.8,74.2,71.2,97,80,54,30.14,30.02,6,0,6,0.00
2014-8-23,95.0,83.4,73.9,76.6,73.9,70.6,95,75,46,30.07,29.93,7,0,7,0.00
2014-8-24,94.8,84.0,74.4,77.6,74.2,70.5,94,75,48,29.99,29.89,8,0,8,0.00
2014-8-25,90.5,81.3,76.1,80.3,75.9,73.2,93,84,64,30.00,29.92,9,0,9,0.06
2014-8-26,91.1,79.9,71.7,74.2,68.3,64.1,94,70,42,30.09,29.98,13,0,13,0.00
2014-8-27,92.5,79.8,69.5,71.7,67.8,64.7,90,69,41,30.09,29.99,8,0,8,0.00
2014-8-28,91.3,80.1,69.9,75.5,69.8,65.3,94,73,44,30.03,29.93,6,0,6,0.00
2014-8-29,92.3,82.2,74.7,76.1,72.1,68.6,93,74,48,30.03,29.94,8,0,8,0.00
2014-8-30,84.3,76.5,73.9,77.6,73.5,71.3,95,90,76,30.07,30.00,10,0,10,0.16
2014-8-31,85.5,78.9,73.4,78.6,75.0,71.6,95,88,76,30.12,30.04,7,0,7,0.00
2014-9-1,93.0,80.2,75.0,77.5,74.5,72.8,96,84,56,30.09,30.00,17,0,17,0.00
2014-9-2,88.3,78.9,71.7,78.7,74.7,70.5,96,88,67,30.10,29.99,7,0,11,0.89
2014-9-3,88.3,78.4,70.4,77.9,73.7,69.2,97,86,68,30.09,29.98,7,0,7,0.00
2014-9-4,91.8,81.6,73.4,77.8,74.2,71.6,96,80,55,30.11,30.02,3,0,5,0.00
2014-9-5,87.9,78.1,73.1,78.0,73.3,70.7,94,86,66,30.16,30.05,5,0,8,0.01
2014-9-6,90.0,79.4,70.6,75.5,72.5,69.1,96,81,58,30.10,29.97,6,0,6,0.00
2014-9-7,84.5,78.3,74.3,76.2,74.0,71.8,93,87,74,30.07,29.95,6,0,6,0.00
2014-9-8,90.8,81.0,73.1,76.6,74.1,71.3,95,81,59,30.06,29.96,6,0,7,0.00
2014-9-9,90.9,80.9,73.8,81.2,75.3,72.0,95,84,62,30.05,29.93,8,0,10,0.05
2014-9-10,92.4,82.5,75.5,78.1,75.0,73.1,95,79,56,29.99,29.90,8,0,9,0.00
2014-9-11,91.5,81.8,75.6,79.1,75.9,73.7,97,84,61,30.03,29.92,5,0,5,0.00
2014-9-12,86.5,78.1,73.9,79.4,74.9,71.3,95,90,74,30.11,29.98,7,0,8,0.03
2014-9-13,73.8,69.3,66.4,71.6,66.3,63.0,95,90,85,30.21,30.05,10,1,10,0.01
2014-9-14,84.6,73.0,64.6,73.0,67.1,61.6,91,83,67,30.22,30.11,7,0,7,0.00
2014-9-15,89.3,78.7,68.8,75.7,71.4,66.2,92,79,62,30.16,30.07,8,0,8,0.00
2014-9-16,86.2,79.2,73.0,73.9,71.4,66.8,91,78,53,30.12,29.99,8,0,8,0.00
2014-9-17,89.3,77.1,70.8,75.5,71.2,68.8,94,83,60,30.03,29.92,6,0,6,0.00
2014-9-18,85.2,84.2,83.3,72.3,72.3,72.2,70,68,66,29.94,29.93,0,0,1,0.00
2014-9-19,83.3,82.3,81.3,72.2,72.2,72.2,75,73,70,29.95,29.94,0,0,1,0.00
2014-9-20,81.3,78.9,70.8,72.4,71.8,69.3,95,80,75,30.05,29.95,0,0,0,0.00
2014-9-21,88.3,75.2,64.7,75.9,69.7,63.8,98,85,55,30.10,29.99,0,0,0,0.00
2014-9-22,82.1,72.2,62.4,71.2,63.5,57.0,95,76,45,30.16,30.03,1,0,1,0.00
2014-9-23,81.8,66.8,53.8,65.0,57.8,51.7,93,75,46,30.20,30.10,7,0,7,0.00
2014-9-24,83.2,68.8,58.3,68.4,61.9,56.5,95,80,52,30.25,30.15,7,0,8,0.00
2014-9-25,82.5,68.8,58.1,70.1,62.7,56.4,95,82,53,30.24,30.13,7,0,7,0.00
2014-9-26,83.5,70.5,61.9,71.7,65.5,60.5,96,85,58,30.16,30.07,4,0,4,0.00
2014-9-27,78.9,69.2,62.9,69.9,65.6,61.4,96,89,71,30.13,30.04,8,0,8,0.00
2014-9-28,80.0,72.5,66.5,74.2,69.2,64.3,95,90,79,30.09,29.99,7,0,7,0.00
2014-9-29,86.2,75.4,68.0,74.4,70.3,66.5,96,85,59,30.00,29.90,8,0,8,0.00
2014-9-30,88.5,74.0,63.8,75.0,67.8,62.9,98,83,52,29.97,29.86,6,0,6,0.00
2014-10-1,89.2,75.6,65.7,74.1,68.9,64.3,97,82,54,29.99,29.89,6,0,6,0.00
2014-10-2,87.1,77.0,72.2,80.3,74.2,69.9,96,91,72,30.01,29.86,7,0,12,0.59
2014-10-3,78.8,69.6,58.9,75.3,65.8,56.4,97,88,68,30.09,29.87,14,0,14,0.76
2014-10-4,69.0,58.2,48.0,58.7,46.9,38.5,94,69,37,30.20,30.06,16,0,16,0.00
2014-10-5,78.8,61.6,46.8,56.5,49.8,45.1,95,69,35,30.08,29.95,7,0,9,0.00
2014-10-6,80.6,69.5,61.5,70.1,63.5,54.6,94,82,65,30.03,29.93,8,0,8,0.00
2014-10-7,86.8,74.0,66.6,72.0,68.1,64.8,97,83,53,30.06,29.97,7,0,7,0.00
2014-10-8,86.5,74.3,66.0,75.5,69.8,64.8,97,87,62,30.17,30.05,4,0,4,0.00
2014-10-9,86.3,75.1,66.5,75.5,70.2,65.3,97,86,64,30.13,29.99,7,0,7,0.00
2014-10-10,86.2,76.8,73.5,75.4,72.7,70.5,95,88,62,30.05,30.01,8,0,8,0.00
2014-10-11,87.8,77.0,68.4,73.5,69.6,64.5,96,80,50,30.07,29.97,8,0,8,0.00
2014-10-12,84.5,75.0,67.0,76.2,70.6,65.5,96,87,68,30.02,29.89,6,0,6,0.02
2014-10-13,88.2,72.8,62.1,75.3,69.1,60.7,97,89,62,29.95,29.72,12,0,12,1.65
2014-10-14,69.5,62.1,56.2,60.7,56.1,52.0,95,81,58,30.00,29.79,13,1,13,0.01
2014-10-15,72.5,60.4,51.0,53.9,49.9,44.4,94,71,38,30.04,29.97,18,0,18,0.00
2014-10-16,77.2,59.3,46.0,59.3,51.6,44.9,98,79,39,30.06,29.96,8,0,8,0.00
2014-10-17,81.8,65.5,52.1,67.2,59.1,50.7,97,82,48,30.05,29.95,12,0,12,0.00
2014-10-18,77.4,64.8,55.2,64.8,59.2,53.5,98,83,55,30.14,29.98,11,0,11,0.00
2014-10-19,71.7,57.9,49.3,56.2,50.8,46.8,95,80,45,30.22,30.11,9,0,9,0.00
2014-10-20,74.5,57.6,44.5,60.7,51.5,43.5,100,83,49,30.14,30.03,6,0,6,0.00
2014-10-21,77.3,61.3,48.7,64.7,56.1,47.6,98,85,58,30.14,30.03,6,0,6,0.00
2014-10-22,73.6,59.9,48.8,57.9,52.8,46.7,97,79,49,30.19,30.09,4,0,6,0.00
2014-10-23,67.0,53.8,41.6,56.5,48.9,40.2,97,85,54,30.22,30.10,5,0,5,0.00
2014-10-24,73.5,56.5,45.5,57.5,50.1,44.4,98,82,43,30.19,30.10,6,0,6,0.00
2014-10-25,79.8,61.1,46.0,66.8,56.4,44.9,98,86,60,30.20,30.09,8,0,8,0.00
2014-10-26,84.5,67.2,54.9,70.2,62.3,54.0,98,86,58,30.12,29.99,5,0,5,0.00
2014-10-27,83.3,68.3,56.9,67.3,61.5,56.1,98,81,52,30.08,29.98,7,0,7,0.00
2014-10-28,80.0,69.6,62.1,70.2,65.3,60.9,97,87,66,30.14,30.04,5,0,5,0.00
2014-10-29,73.3,64.6,50.6,66.1,58.9,47.2,95,83,47,30.16,30.05,7,0,7,0.00
2014-10-30,72.3,55.6,42.7,52.3,46.8,41.4,96,76,40,30.20,30.07,7,0,7,0.00
2014-10-31,69.1,54.5,45.2,54.9,46.8,26.9,97,77,48,30.32,30.03,14,1,14,0.00
2014-11-1,56.2,44.1,36.2,34.4,30.5,23.9,84,60,35,30.43,30.32,12,0,12,0.00
2014-11-2,63.9,44.3,29.0,41.9,34.6,27.4,95,73,31,30.52,30.37,7,0,7,0.00
2014-11-3,71.3,52.0,37.1,48.6,38.4,33.6,89,65,28,30.46,30.31,6,0,6,0.00
2014-11-4,78.0,62.9,49.4,62.5,55.7,47.4,95,79,56,30.31,30.16,9,0,9,0.00
2014-11-5,73.4,65.8,61.6,66.2,62.0,58.0,96,88,75,30.22,30.14,5,0,5,0.03
2014-11-6,65.3,59.8,47.7,64.3,56.2,42.7,97,88,71,30.26,30.13,7,0,7,0.18
2014-11-7,59.2,46.6,37.0,42.9,38.7,35.2,95,76,44,30.30,30.10,7,0,7,0.00
2014-11-8,67.0,49.8,33.8,49.6,41.1,32.5,97,76,34,30.12,30.00,7,0,7,0.00
2014-11-9,64.8,49.5,39.0,49.2,42.8,37.8,97,80,45,30.16,30.02,7,0,7,0.00
2014-11-10,75.8,55.6,36.1,53.0,44.2,35.0,97,71,33,30.07,29.90,10,0,10,0.00
2014-11-11,77.8,62.9,46.3,65.2,56.9,43.5,94,82,61,30.13,29.93,8,0,8,0.00
2014-11-12,46.3,45.6,44.7,44.1,42.0,39.7,92,87,81,30.25,30.13,10,0,10,0.00